Weather reports worldwide

Advertisment
Kahler Asten, Germany (10427): temperature & dewpoint: 14.06.2019 06:00:00 - 20.06.2019 06:00:00 (CEST)Kahler Asten, Germany (10427): temperature 5cm & temperature -5cm: 14.06.2019 06:00:00 - 20.06.2019 06:00:00 (CEST)Kahler Asten, Germany (10427): temperature -20cm & temperature -100cm: 14.06.2019 06:00:00 - 20.06.2019 06:00:00 (CEST)Kahler Asten, Germany (10427): wind speed & gusts: 14.06.2019 06:00:00 - 20.06.2019 06:00:00 (CEST)Kahler Asten, Germany (10427): wind direction: 14.06.2019 06:00:00 - 20.06.2019 06:00:00 (CEST)Kahler Asten, Germany (10427): visibility: 14.06.2019 06:00:00 - 20.06.2019 06:00:00 (CEST)Kahler Asten, Germany (10427): sunshine duration: 14.06.2019 06:00:00 - 20.06.2019 06:00:00 (CEST)Kahler Asten, Germany (10427): precipitation: 14.06.2019 06:00:00 - 20.06.2019 06:00:00 (CEST)
Date & Time tt [°C] td [°C] tt 5cm [°C] tt -5cm [°C] tt -20cm [°C] tt -100cm [°C] ff [km/h] ff [kn] fx [km/h] fx [kn] dd vv [km] sd [min] rr [mm]
20.06.2019 06:00:00 - - - - - - - - - - - - - -
20.06.2019 05:00:00 - - - - - - - - - - - - - -
20.06.2019 04:00:00 - - - - - - - - - - - - - -
20.06.2019 03:00:00 - - - - - - - - - - - - - -
20.06.2019 02:00:00 - - - - - - - - - - - - - -
20.06.2019 01:00:00 - - - - - - - - - - - - - -
20.06.2019 00:00:00 - - - - - - - - - - - - - -
19.06.2019 23:00:00 - - - - - - - - - - - - - -
19.06.2019 22:00:00 - - - - - - - - - - - - - -
19.06.2019 21:00:00 20,6 10,7 19,6 23,5 21,7 11,9 16 9 25 14 SW 67 10 0,0
19.06.2019 20:00:00 22,1 11,1 21,7 25,3 21,8 11,9 17 9 24 13 SW 57 59 0,0
19.06.2019 19:00:00 22,6 10,6 23,3 26,5 21,6 11,9 14 7 33 18 W 47 60 0,0
19.06.2019 18:00:00 23,7 9,0 25,0 27,5 21,3 11,9 23 12 41 22 W 29 56 0,0
19.06.2019 17:00:00 24,2 9,7 26,5 28,2 20,9 11,9 28 15 47 25 SW 43 57 0,0
19.06.2019 16:00:00 24,7 8,6 27,9 29,0 20,4 11,8 23 12 37 20 SW 36 57 0,0
19.06.2019 15:00:00 23,6 12,2 26,0 28,2 19,9 11,8 21 12 48 26 W 41 42 0,0
19.06.2019 14:00:00 23,8 10,3 25,1 28,8 19,1 11,8 25 14 49 26 SW 64 44 0,0
19.06.2019 13:00:00 24,2 11,0 26,7 28,3 18,4 11,8 28 15 43 23 SSW 26 60 0,0
19.06.2019 12:00:00 23,2 13,2 26,5 26,7 17,6 11,8 25 13 36 20 S 27 60 0,0
19.06.2019 11:00:00 22,6 11,8 25,3 24,4 17,0 11,8 21 11 34 18 SSE 33 60 0,0
19.06.2019 10:00:00 21,3 11,8 23,4 21,8 16,6 11,8 18 10 30 16 S 36 60 0,0
19.06.2019 09:00:00 20,2 12,5 22,1 19,0 16,5 11,7 17 9 26 14 S 33 59 0,0
19.06.2019 08:00:00 19,2 11,2 19,5 16,8 16,6 11,7 20 11 30 16 SSW 40 42 0,0
19.06.2019 07:00:00 18,1 11,4 17,0 15,6 16,8 11,7 24 13 29 16 SSW 49 0 0,0
19.06.2019 06:00:00 18,5 11,0 17,3 15,5 17,1 11,7 24 13 32 17 SSW 49 0 0,0
19.06.2019 05:00:00 18,1 11,3 16,4 15,8 17,4 11,7 21 12 26 14 S 50 0 0,0
19.06.2019 04:00:00 18,0 12,3 16,3 16,2 17,7 11,7 21 11 26 14 S 36 0 0,0
19.06.2019 03:00:00 18,0 11,9 15,8 16,7 18,1 11,7 16 8 21 11 S 42 0 0,0
19.06.2019 02:00:00 18,3 11,8 16,4 17,1 18,4 11,7 14 8 22 12 S 45 0 0,0
19.06.2019 01:00:00 18,2 11,7 15,5 17,6 18,8 11,7 15 8 20 11 S 42 0 0,0
19.06.2019 00:00:00 18,8 11,7 16,4 18,5 19,2 11,7 14 8 20 11 S 44 0 0,0
18.06.2019 23:00:00 19,2 11,8 17,7 19,4 19,6 11,6 15 8 19 10 S 41 0 0,0
18.06.2019 22:00:00 19,3 11,6 17,2 20,5 19,8 11,6 13 7 19 10 S 45 0 0,0
18.06.2019 21:00:00 20,0 11,6 18,5 21,9 20,0 11,6 11 6 20 11 S 48 4 0,0
18.06.2019 20:00:00 21,2 11,1 20,7 23,3 20,1 11,6 13 7 21 11 S 55 14 0,0
18.06.2019 19:00:00 21,5 11,2 21,7 24,4 20,0 11,6 16 9 26 14 S 49 6 0,0
18.06.2019 18:00:00 21,7 11,0 22,2 25,4 19,7 11,6 19 10 27 15 S 60 25 0,0
18.06.2019 17:00:00 22,3 10,2 23,5 26,6 19,3 11,6 18 10 29 16 SSW 61 50 0,0
18.06.2019 16:00:00 22,7 10,8 26,2 26,9 18,8 11,6 17 9 33 18 S 35 50 0,0
18.06.2019 15:00:00 21,6 10,4 23,0 26,9 18,2 11,6 17 9 32 18 S 66 28 0,0
18.06.2019 14:00:00 22,0 11,4 26,1 26,9 17,5 11,6 16 9 34 18 SSE 57 40 0,0
18.06.2019 13:00:00 22,4 11,5 27,0 25,7 16,8 11,6 17 9 36 19 SSW 44 50 0,0
18.06.2019 12:00:00 21,3 10,4 25,4 23,7 16,2 11,5 19 11 33 18 S 38 40 0,0
18.06.2019 11:00:00 20,4 10,4 24,1 22,3 15,6 11,5 20 11 29 16 SSE 70 45 0,0
18.06.2019 10:00:00 19,6 11,2 22,0 20,5 15,2 11,5 13 7 21 11 S 38 60 0,0
18.06.2019 09:00:00 18,4 11,3 20,3 17,4 15,0 11,5 13 7 21 12 S 55 56 0,0
18.06.2019 08:00:00 17,1 10,7 17,5 15,0 15,1 11,5 11 6 18 10 S 63 47 0,0
18.06.2019 07:00:00 15,4 10,5 13,8 13,7 15,3 11,5 14 8 20 11 SSE 45 19 0,0
18.06.2019 06:00:00 15,0 10,4 13,1 13,4 15,6 11,5 14 8 23 12 SE 38 0 0,0
18.06.2019 05:00:00 15,4 10,4 13,2 13,7 15,9 11,5 17 9 25 13 SE 44 0 0,0
18.06.2019 04:00:00 15,4 10,5 13,4 14,0 16,2 11,5 20 11 24 13 SE 41 0 0,0
18.06.2019 03:00:00 15,2 10,5 13,0 14,5 16,6 11,5 17 9 25 14 SE 41 0 0,0
18.06.2019 02:00:00 15,6 10,7 13,4 15,0 17,0 11,5 20 11 27 14 ESE 46 0 0,0
18.06.2019 01:00:00 15,7 10,7 14,0 15,6 17,4 11,5 21 11 26 14 ESE 44 0 0,0
18.06.2019 00:00:00 15,8 11,0 13,6 16,4 17,8 11,5 18 10 23 12 ESE 56 0 0,0
17.06.2019 23:00:00 16,5 10,9 14,6 17,3 18,2 11,5 16 9 22 12 ESE 65 0 0,0
17.06.2019 22:00:00 16,9 10,5 13,8 18,5 18,5 11,5 11 6 15 8 E 70 20 0,0
17.06.2019 21:00:00 18,2 10,0 16,4 20,0 18,7 11,5 8 4 16 8 SE 67 60 0,0
17.06.2019 20:00:00 18,2 9,6 18,6 21,3 18,8 11,5 14 8 24 13 SE 70 24 0,0
17.06.2019 19:00:00 19,5 9,5 21,1 22,7 18,7 11,5 16 8 23 13 ESE 70 32 0,0
17.06.2019 18:00:00 19,2 8,7 22,3 24,1 18,4 11,4 11 6 27 15 SSE 70 36 0,0
17.06.2019 17:00:00 19,7 9,1 23,1 25,1 18,0 11,4 14 8 31 17 SE 69 47 0,0
17.06.2019 16:00:00 19,4 8,8 21,5 25,7 17,5 11,4 18 10 32 17 SE 70 42 0,0
17.06.2019 15:00:00 18,6 9,2 20,5 25,3 16,9 11,4 16 9 27 15 SE 62 22 0,0
17.06.2019 14:00:00 18,5 9,1 20,5 26,0 16,1 11,4 9 5 31 17 SE 64 43 0,0
17.06.2019 13:00:00 18,8 9,9 23,3 24,9 15,3 11,4 16 9 29 16 SSE 34 60 0,0
17.06.2019 12:00:00 17,5 9,5 22,1 22,1 14,6 11,4 17 9 28 15 SE 70 47 0,0
17.06.2019 11:00:00 17,1 8,6 20,2 21,2 13,9 11,4 13 7 22 12 SE 27 60 0,0
17.06.2019 10:00:00 16,3 8,8 18,3 18,4 13,4 11,4 11 6 18 10 SE 37 60 0,0
17.06.2019 09:00:00 15,6 9,2 17,3 15,5 13,2 11,4 11 6 21 11 SE 37 60 0,0
17.06.2019 08:00:00 14,7 9,0 15,5 12,9 13,2 11,4 14 8 22 12 E 61 60 0,0
17.06.2019 07:00:00 13,7 9,2 13,0 10,7 13,5 11,4 7 4 16 9 E 55 53 0,0
17.06.2019 06:00:00 12,7 8,1 7,5 10,4 13,8 11,4 9 5 10 5 NE 70 0 0,0
17.06.2019 05:00:00 12,1 8,1 5,4 10,8 14,2 11,4 8 4 10 5 NNE 67 0 0,0
17.06.2019 04:00:00 12,4 8,1 6,7 11,4 14,5 11,4 10 5 14 7 N 70 0 0,0
17.06.2019 03:00:00 12,2 7,5 8,6 12,1 14,9 11,4 14 8 16 9 WNW 70 0 0,0
17.06.2019 02:00:00 12,5 7,7 9,5 12,8 15,2 11,4 12 6 16 8 WNW 70 0 0,0
17.06.2019 01:00:00 12,9 8,5 11,0 13,5 15,6 11,4 10 5 16 9 WNW 70 0 0,0
17.06.2019 00:00:00 12,4 8,2 8,7 13,8 16,0 11,4 11 6 15 8 W 70 0 0,0
16.06.2019 23:00:00 12,9 8,3 10,2 15,0 16,3 11,3 14 7 16 9 W 70 0 0,0
16.06.2019 22:00:00 13,4 8,8 11,2 15,9 16,6 11,3 11 6 14 8 WNW 70 6 0,0
16.06.2019 21:00:00 14,7 9,0 12,5 17,4 16,7 11,3 11 6 16 8 WNW 70 46 0,0
16.06.2019 20:00:00 15,7 8,9 14,9 18,9 16,8 11,3 9 5 21 11 W 70 42 0,0
16.06.2019 19:00:00 15,2 8,5 15,3 19,6 16,6 11,3 15 8 24 13 W 70 0 0,0
16.06.2019 18:00:00 16,1 7,1 16,6 21,2 16,3 11,3 19 10 26 14 W 70 24 0,0
16.06.2019 17:00:00 16,5 7,1 18,4 21,6 15,8 11,3 14 8 32 17 W 70 30 0,0
16.06.2019 16:00:00 17,2 8,1 20,7 21,5 15,3 11,3 27 15 43 23 WSW 30 40 0,0
16.06.2019 15:00:00 16,2 8,2 18,5 20,0 14,9 11,3 13 7 24 13 W 70 20 0,0
16.06.2019 14:00:00 15,0 7,9 17,5 17,9 14,6 11,3 13 7 29 16 WSW 69 3 0,0
16.06.2019 13:00:00 14,1 10,0 15,3 17,7 14,2 11,3 10 5 18 10 WSW 39 7 0,0
16.06.2019 12:00:00 14,2 10,2 17,4 16,8 13,9 11,3 10 5 17 9 WSW 19 1 0,0
16.06.2019 11:00:00 13,2 10,5 13,8 16,1 13,7 11,3 13 7 19 10 WSW 15 3 0,0
16.06.2019 10:00:00 12,3 10,8 13,1 14,0 13,7 11,3 13 7 22 12 W 10 0 0,0
16.06.2019 09:00:00 11,9 10,7 12,3 13,3 13,7 11,3 11 6 19 10 WSW 7 0 0,0
16.06.2019 08:00:00 11,5 10,3 11,3 12,8 13,8 11,2 13 7 18 10 SW 10 0 0,1
16.06.2019 07:00:00 11,6 10,2 11,1 12,6 13,9 11,2 13 7 18 10 S 9 0 0,0
16.06.2019 06:00:00 11,2 10,0 10,5 12,6 14,1 11,2 11 6 14 7 S 7 0 1,5
16.06.2019 05:00:00 12,2 9,6 11,0 12,6 14,3 11,2 13 7 16 9 SSE 10 0 0,0
16.06.2019 04:00:00 12,8 9,7 10,9 12,5 14,5 11,2 7 4 9 5 SSE 18 0 0,1
16.06.2019 03:00:00 12,9 8,8 10,2 12,2 14,9 11,2 4 2 7 4 SSE 29 0 0,0
16.06.2019 02:00:00 12,5 8,8 6,7 12,3 15,3 11,2 5 3 8 5 N 20 0 0,0
16.06.2019 01:00:00 12,7 8,8 7,5 13,0 15,7 11,2 8 4 14 8 N 34 0 0,0
16.06.2019 00:00:00 12,8 8,7 8,9 13,8 16,1 11,2 13 7 16 9 NNW 45 0 0,0
15.06.2019 23:00:00 13,0 7,4 9,7 14,7 16,5 11,2 15 8 22 12 NW 67 0 0,0
15.06.2019 22:00:00 13,8 6,3 11,6 15,9 16,9 11,2 18 10 29 15 NW 70 0 0,0
15.06.2019 21:00:00 14,5 5,7 12,5 17,6 17,1 11,2 17 9 43 23 W 70 36 0,0
15.06.2019 20:00:00 16,4 8,0 16,2 19,5 17,1 11,2 25 14 39 21 W 33 53 0,0
15.06.2019 19:00:00 16,5 9,1 17,8 20,3 17,0 11,2 21 11 39 21 W 44 57 0,0
15.06.2019 18:00:00 16,9 9,3 17,4 21,2 16,7 11,2 25 13 42 23 W 49 46 0,0
15.06.2019 17:00:00 17,2 9,5 18,0 21,7 16,3 11,2 24 13 41 22 W 50 43 0,0
15.06.2019 16:00:00 17,0 10,0 18,8 22,2 15,8 11,2 31 17 48 26 W 27 44 0,0
15.06.2019 15:00:00 17,1 10,7 21,0 21,3 15,4 11,1 34 19 52 28 W 23 41 0,0
15.06.2019 14:00:00 17,0 11,2 18,7 20,1 15,1 11,1 26 14 44 24 WSW 70 26 0,0
15.06.2019 13:00:00 15,4 11,7 16,3 18,5 14,8 11,1 23 12 41 22 WSW 54 5 0,0
15.06.2019 12:00:00 16,4 12,9 20,6 17,7 14,5 11,1 25 13 44 24 WSW 20 16 0,0
15.06.2019 11:00:00 15,5 12,5 16,8 16,9 14,3 11,1 25 14 41 22 WSW 20 12 0,0
15.06.2019 10:00:00 13,7 13,1 14,4 15,7 14,2 11,1 19 10 37 20 W 3,6 0 0,0
15.06.2019 09:00:00 14,1 12,8 14,9 15,9 14,1 11,1 20 11 30 16 WSW 10 45 0,0
15.06.2019 08:00:00 16,0 12,2 15,7 14,3 14,1 11,1 13 7 21 11 SSW 64 27 0,0
15.06.2019 07:00:00 16,5 10,8 15,6 13,4 14,3 11,1 17 9 26 14 E 66 2 0,0
15.06.2019 06:00:00 15,4 10,8 14,0 13,1 14,5 11,1 19 10 30 16 ENE 57 0 0,0
15.06.2019 05:00:00 14,5 11,1 12,4 13,3 14,8 11,1 21 11 27 14 NNE 54 0 0,0
15.06.2019 04:00:00 15,3 10,3 12,8 13,7 15,0 11,1 18 10 25 14 NNE 70 0 0,0
15.06.2019 03:00:00 14,0 12,0 12,0 14,3 15,3 11,1 18 10 23 12 N 31 0 0,0
15.06.2019 02:00:00 14,5 12,3 13,1 14,9 15,5 11,1 19 10 36 19 W 30 0 0,0
15.06.2019 01:00:00 15,9 11,6 14,7 15,3 15,7 11,1 19 10 23 12 E 49 0 0,0
15.06.2019 00:00:00 16,1 12,7 15,0 15,7 16,0 11,1 18 10 26 14 ESE 33 0 0,0
14.06.2019 23:00:00 16,4 12,2 15,1 16,3 16,2 11,1 19 10 22 12 ESE 40 0 0,0
14.06.2019 22:00:00 16,8 11,5 15,3 17,1 16,5 11,1 10 6 25 13 E 48 0 0,0
14.06.2019 21:00:00 17,4 11,4 16,4 18,1 16,6 11,1 17 9 24 13 SSE 56 0 0,0
14.06.2019 20:00:00 18,2 11,0 17,5 19,4 16,6 11,1 16 9 27 15 SSE 70 7 0,0
14.06.2019 19:00:00 18,9 11,7 19,0 20,3 16,5 11,1 16 9 29 16 SSE 70 13 0,0
14.06.2019 18:00:00 19,8 11,6 19,8 21,2 16,2 11,1 18 10 28 15 S 70 21 0,0
14.06.2019 17:00:00 20,3 11,0 21,0 21,6 15,9 11,1 20 11 32 18 S 59 18 0,0
14.06.2019 16:00:00 20,1 11,7 20,9 21,8 15,5 11,1 22 12 45 25 SE 63 13 0,0
14.06.2019 15:00:00 20,5 9,7 21,1 22,4 14,9 11,1 31 17 48 26 S 70 24 0,0
14.06.2019 14:00:00 20,8 7,7 21,7 22,5 14,1 11,1 32 17 50 27 S 62 43 0,0
14.06.2019 13:00:00 21,2 9,1 23,1 21,4 13,3 11,1 33 18 58 31 S 29 59 0,0
14.06.2019 12:00:00 19,5 10,9 21,7 19,4 12,7 11,2 32 17 49 26 S 21 60 0,0
14.06.2019 11:00:00 17,7 10,1 18,2 16,7 12,2 11,2 24 13 37 20 S 70 41 0,0
14.06.2019 10:00:00 15,5 9,8 15,2 14,8 11,8 11,2 22 12 46 25 S 70 37 0,0
14.06.2019 09:00:00 15,5 9,3 16,4 13,2 11,6 11,2 32 17 47 25 S 18 58 0,0
14.06.2019 08:00:00 14,1 8,1 14,4 10,8 11,6 11,2 30 16 41 22 SSE 55 35 0,0
14.06.2019 07:00:00 13,5 6,4 13,7 9,7 11,8 11,2 28 15 43 23 SSE 70 48 0,0
14.06.2019 06:00:00 12,6 4,8 11,0 9,2 12,0 11,2 27 15 38 20 S 70 0 0,0

tt = temperature
td = dewpoint
tt 5cm = temperature 5cm
tt -5cm = temperature -5cm
tt -20cm = temperature -20cm
tt -100cm = temperature -100cm
ff = wind speed
fx = gusts
dd = wind direction
vv = visibility
sd = sunshine duration
rr = precipitation

Next stations